sensor_id;sensor_type;location;lat;lon;timestamp;pressure;altitude;pressure_sealevel;temperature;humidity
56928;BME280;60850;52.502;13.426;2023-04-15T00:02:14;100152.25;;;8.66;100.00
56928;BME280;60850;52.502;13.426;2023-04-15T00:04:43;100147.16;;;8.60;100.00
56928;BME280;60850;52.502;13.426;2023-04-15T00:07:10;100157.84;;;8.57;100.00
56928;BME280;60850;52.502;13.426;2023-04-15T00:09:40;100143.56;;;8.61;100.00
56928;BME280;60850;52.502;13.426;2023-04-15T00:12:07;100144.38;;;8.63;100.00
56928;BME280;60850;52.502;13.426;2023-04-15T00:14:34;100147.03;;;8.63;100.00
56928;BME280;60850;52.502;13.426;2023-04-15T00:17:01;100148.88;;;8.61;100.00
56928;BME280;60850;52.502;13.426;2023-04-15T00:19:28;100145.34;;;8.61;100.00
56928;BME280;60850;52.502;13.426;2023-04-15T00:21:55;100141.91;;;8.57;100.00
56928;BME280;60850;52.502;13.426;2023-04-15T00:24:23;100148.91;;;8.60;100.00
56928;BME280;60850;52.502;13.426;2023-04-15T00:26:51;100146.88;;;8.69;100.00
56928;BME280;60850;52.502;13.426;2023-04-15T00:29:18;100145.97;;;8.70;100.00
56928;BME280;60850;52.502;13.426;2023-04-15T00:31:45;100139.72;;;8.71;100.00
56928;BME280;60850;52.502;13.426;2023-04-15T00:34:12;100138.94;;;8.68;100.00
56928;BME280;60850;52.502;13.426;2023-04-15T00:36:39;100145.84;;;8.73;100.00
56928;BME280;60850;52.502;13.426;2023-04-15T00:39:06;100139.72;;;8.71;100.00
56928;BME280;60850;52.502;13.426;2023-04-15T00:41:33;100133.47;;;8.74;100.00
56928;BME280;60850;52.502;13.426;2023-04-15T00:44:05;100136.84;;;8.79;100.00
56928;BME280;60850;52.502;13.426;2023-04-15T00:46:34;100143.19;;;8.73;100.00
56928;BME280;60850;52.502;13.426;2023-04-15T00:49:03;100129.09;;;8.71;100.00
56928;BME280;60850;52.502;13.426;2023-04-15T00:51:31;100144.09;;;8.74;100.00
56928;BME280;60850;52.502;13.426;2023-04-15T00:54:01;100128.22;;;8.71;100.00
56928;BME280;60850;52.502;13.426;2023-04-15T00:56:28;100131.81;;;8.70;100.00
56928;BME280;60850;52.502;13.426;2023-04-15T00:58:55;100131.38;;;8.54;100.00
56928;BME280;60850;52.502;13.426;2023-04-15T01:01:24;100139.34;;;8.54;100.00
56928;BME280;60850;52.502;13.426;2023-04-15T01:03:52;100139.25;;;8.57;100.00
56928;BME280;60850;52.502;13.426;2023-04-15T01:06:18;100130.31;;;8.60;100.00
56928;BME280;60850;52.502;13.426;2023-04-15T01:08:46;100124.81;;;8.66;100.00
56928;BME280;60850;52.502;13.426;2023-04-15T01:11:13;100125.63;;;8.69;100.00
56928;BME280;60850;52.502;13.426;2023-04-15T01:13:41;100129.22;;;8.67;100.00
56928;BME280;60850;52.502;13.426;2023-04-15T01:16:08;100120.47;;;8.63;100.00
56928;BME280;60850;52.502;13.426;2023-04-15T01:18:36;100124.88;;;8.64;100.00
56928;BME280;60850;52.502;13.426;2023-04-15T01:21:04;100124.06;;;8.62;100.00
56928;BME280;60850;52.502;13.426;2023-04-15T01:23:36;100121.44;;;8.61;100.00
56928;BME280;60850;52.502;13.426;2023-04-15T01:26:05;100123.13;;;8.63;100.00
56928;BME280;60850;52.502;13.426;2023-04-15T01:28:33;100120.66;;;8.57;100.00
56928;BME280;60850;52.502;13.426;2023-04-15T01:31:07;100120.53;;;8.62;100.00
56928;BME280;60850;52.502;13.426;2023-04-15T01:33:34;100118.81;;;8.59;100.00
56928;BME280;60850;52.502;13.426;2023-04-15T01:36:02;100115.25;;;8.60;100.00
56928;BME280;60850;52.502;13.426;2023-04-15T01:38:30;100120.53;;;8.62;100.00
56928;BME280;60850;52.502;13.426;2023-04-15T01:40:57;100112.50;;;8.63;100.00
56928;BME280;60850;52.502;13.426;2023-04-15T01:43:26;100121.34;;;8.64;100.00
56928;BME280;60850;52.502;13.426;2023-04-15T01:45:53;100120.41;;;8.65;100.00
56928;BME280;60850;52.502;13.426;2023-04-15T01:48:21;100106.50;;;8.57;100.00
56928;BME280;60850;52.502;13.426;2023-04-15T01:50:48;100112.72;;;8.56;100.00
56928;BME280;60850;52.502;13.426;2023-04-15T01:53:15;100117.13;;;8.57;100.00
56928;BME280;60850;52.502;13.426;2023-04-15T01:55:42;100109.03;;;8.60;100.00
56928;BME280;60850;52.502;13.426;2023-04-15T01:58:09;100114.34;;;8.61;100.00
56928;BME280;60850;52.502;13.426;2023-04-15T02:00:37;100110.75;;;8.62;100.00
56928;BME280;60850;52.502;13.426;2023-04-15T02:03:04;100111.63;;;8.63;100.00
56928;BME280;60850;52.502;13.426;2023-04-15T02:05:31;100102.84;;;8.59;100.00
56928;BME280;60850;52.502;13.426;2023-04-15T02:07:58;100108.00;;;8.65;100.00
56928;BME280;60850;52.502;13.426;2023-04-15T02:10:25;100109.75;;;8.66;100.00
56928;BME280;60850;52.502;13.426;2023-04-15T02:12:53;100113.38;;;8.64;100.00
56928;BME280;60850;52.502;13.426;2023-04-15T02:15:19;100111.59;;;8.64;100.00
56928;BME280;60850;52.502;13.426;2023-04-15T02:17:48;100104.63;;;8.60;100.00
56928;BME280;60850;52.502;13.426;2023-04-15T02:20:18;100109.94;;;8.60;100.00
56928;BME280;60850;52.502;13.426;2023-04-15T02:22:45;100113.59;;;8.56;100.00
56928;BME280;60850;52.502;13.426;2023-04-15T02:25:12;100102.03;;;8.57;100.00
56928;BME280;60850;52.502;13.426;2023-04-15T02:27:41;100107.25;;;8.62;100.00
56928;BME280;60850;52.502;13.426;2023-04-15T02:30:08;100108.28;;;8.56;100.00
56928;BME280;60850;52.502;13.426;2023-04-15T02:32:36;100103.00;;;8.55;100.00
56928;BME280;60850;52.502;13.426;2023-04-15T02:35:06;100105.53;;;8.59;100.00
56928;BME280;60850;52.502;13.426;2023-04-15T02:37:35;100101.13;;;8.58;100.00
56928;BME280;60850;52.502;13.426;2023-04-15T02:40:07;100101.19;;;8.57;100.00
56928;BME280;60850;52.502;13.426;2023-04-15T02:42:37;100102.00;;;8.59;100.00
56928;BME280;60850;52.502;13.426;2023-04-15T02:45:05;100109.75;;;8.66;100.00
56928;BME280;60850;52.502;13.426;2023-04-15T02:47:32;100102.53;;;8.71;100.00
56928;BME280;60850;52.502;13.426;2023-04-15T02:50:01;100109.84;;;8.63;100.00
56928;BME280;60850;52.502;13.426;2023-04-15T02:52:29;100112.44;;;8.65;100.00
56928;BME280;60850;52.502;13.426;2023-04-15T02:54:56;100115.16;;;8.63;100.00
56928;BME280;60850;52.502;13.426;2023-04-15T02:57:25;100109.03;;;8.60;100.00
56928;BME280;60850;52.502;13.426;2023-04-15T02:59:53;100115.31;;;8.57;100.00
56928;BME280;60850;52.502;13.426;2023-04-15T03:02:20;100120.66;;;8.57;100.00
56928;BME280;60850;52.502;13.426;2023-04-15T03:04:47;100118.78;;;8.61;100.00
56928;BME280;60850;52.502;13.426;2023-04-15T03:07:14;100117.72;;;8.66;100.00
56928;BME280;60850;52.502;13.426;2023-04-15T03:09:42;100106.97;;;8.71;100.00
56928;BME280;60850;52.502;13.426;2023-04-15T03:12:09;100121.94;;;8.73;100.00
56928;BME280;60850;52.502;13.426;2023-04-15T03:14:36;100118.47;;;8.71;100.00
56928;BME280;60850;52.502;13.426;2023-04-15T03:17:03;100119.22;;;8.76;100.00
56928;BME280;60850;52.502;13.426;2023-04-15T03:19:30;100112.16;;;8.75;100.00
56928;BME280;60850;52.502;13.426;2023-04-15T03:21:57;100114.81;;;8.75;100.00
56928;BME280;60850;52.502;13.426;2023-04-15T03:24:24;100119.28;;;8.73;100.00
56928;BME280;60850;52.502;13.426;2023-04-15T03:26:53;100122.00;;;8.72;100.00
56928;BME280;60850;52.502;13.426;2023-04-15T03:29:20;100118.75;;;8.62;100.00
56928;BME280;60850;52.502;13.426;2023-04-15T03:31:47;100126.66;;;8.64;100.00
56928;BME280;60850;52.502;13.426;2023-04-15T03:34:14;100118.84;;;8.58;100.00
56928;BME280;60850;52.502;13.426;2023-04-15T03:36:41;100128.66;;;8.56;100.00
56928;BME280;60850;52.502;13.426;2023-04-15T03:39:08;100122.31;;;8.61;100.00
56928;BME280;60850;52.502;13.426;2023-04-15T03:41:35;100122.25;;;8.63;100.00
56928;BME280;60850;52.502;13.426;2023-04-15T03:44:03;100115.06;;;8.66;100.00
56928;BME280;60850;52.502;13.426;2023-04-15T03:46:31;100124.75;;;8.69;100.00
56928;BME280;60850;52.502;13.426;2023-04-15T03:48:57;100117.00;;;8.61;100.00
56928;BME280;60850;52.502;13.426;2023-04-15T03:51:25;100117.72;;;8.66;100.00
56928;BME280;60850;52.502;13.426;2023-04-15T03:53:51;100121.13;;;8.71;100.00
56928;BME280;60850;52.502;13.426;2023-04-15T03:56:18;100123.88;;;8.68;100.00
56928;BME280;60850;52.502;13.426;2023-04-15T03:58:45;100125.69;;;8.66;100.00
56928;BME280;60850;52.502;13.426;2023-04-15T04:01:14;100123.22;;;8.60;100.00
56928;BME280;60850;52.502;13.426;2023-04-15T04:03:41;100127.69;;;8.58;100.00
56928;BME280;60850;52.502;13.426;2023-04-15T04:06:08;100131.19;;;8.60;100.00
56928;BME280;60850;52.502;13.426;2023-04-15T04:08:34;100133.66;;;8.66;100.00
56928;BME280;60850;52.502;13.426;2023-04-15T04:11:02;100128.28;;;8.69;100.00
56928;BME280;60850;52.502;13.426;2023-04-15T04:13:29;100133.50;;;8.72;100.00
56928;BME280;60850;52.502;13.426;2023-04-15T04:15:56;100131.91;;;8.65;100.00
56928;BME280;60850;52.502;13.426;2023-04-15T04:18:24;100128.31;;;8.68;100.00
56928;BME280;60850;52.502;13.426;2023-04-15T04:20:51;100132.66;;;8.70;100.00
56928;BME280;60850;52.502;13.426;2023-04-15T04:23:18;100132.56;;;8.73;100.00
56928;BME280;60850;52.502;13.426;2023-04-15T04:25:45;100131.69;;;8.73;100.00
56928;BME280;60850;52.502;13.426;2023-04-15T04:28:12;100136.94;;;8.76;100.00
56928;BME280;60850;52.502;13.426;2023-04-15T04:30:39;100144.09;;;8.74;100.00
56928;BME280;60850;52.502;13.426;2023-04-15T04:33:06;100144.09;;;8.74;100.00
56928;BME280;60850;52.502;13.426;2023-04-15T04:35:34;100135.28;;;8.72;100.00
56928;BME280;60850;52.502;13.426;2023-04-15T04:38:02;100136.91;;;8.77;100.00
56928;BME280;60850;52.502;13.426;2023-04-15T04:40:29;100133.25;;;8.82;100.00
56928;BME280;60850;52.502;13.426;2023-04-15T04:42:56;100134.22;;;8.77;100.00
56928;BME280;60850;52.502;13.426;2023-04-15T04:45:23;100137.69;;;8.81;100.00
56928;BME280;60850;52.502;13.426;2023-04-15T04:47:50;100141.16;;;8.83;100.00
56928;BME280;60850;52.502;13.426;2023-04-15T04:50:17;100147.25;;;8.87;100.00
56928;BME280;60850;52.502;13.426;2023-04-15T04:52:45;100148.16;;;8.86;100.00
56928;BME280;60850;52.502;13.426;2023-04-15T04:55:12;100150.72;;;8.90;100.00
56928;BME280;60850;52.502;13.426;2023-04-15T04:57:39;100148.97;;;8.89;100.00
56928;BME280;60850;52.502;13.426;2023-04-15T05:00:07;100145.22;;;8.95;100.00
56928;BME280;60850;52.502;13.426;2023-04-15T05:02:34;100148.13;;;8.87;100.00
56928;BME280;60850;52.502;13.426;2023-04-15T05:05:01;100151.41;;;8.97;100.00
56928;BME280;60850;52.502;13.426;2023-04-15T05:07:28;100151.22;;;9.03;100.00
56928;BME280;60850;52.502;13.426;2023-04-15T05:09:56;100158.22;;;9.05;100.00
56928;BME280;60850;52.502;13.426;2023-04-15T05:12:23;100153.84;;;9.04;100.00
56928;BME280;60850;52.502;13.426;2023-04-15T05:14:50;100158.00;;;9.13;100.00
56928;BME280;60850;52.502;13.426;2023-04-15T05:17:17;100162.63;;;9.06;100.00
56928;BME280;60850;52.502;13.426;2023-04-15T05:19:44;100157.03;;;9.16;100.00
56928;BME280;60850;52.502;13.426;2023-04-15T05:22:11;100162.16;;;9.22;100.00
56928;BME280;60850;52.502;13.426;2023-04-15T05:24:38;100154.91;;;9.27;100.00
56928;BME280;60850;52.502;13.426;2023-04-15T05:27:06;100161.03;;;9.30;100.00
56928;BME280;60850;52.502;13.426;2023-04-15T05:32:13;100164.22;;;9.42;100.00
56928;BME280;60850;52.502;13.426;2023-04-15T05:34:40;100167.97;;;9.34;100.00
56928;BME280;60850;52.502;13.426;2023-04-15T05:37:07;100162.47;;;9.41;100.00
56928;BME280;60850;52.502;13.426;2023-04-15T05:39:34;100172.00;;;9.48;100.00
56928;BME280;60850;52.502;13.426;2023-04-15T05:42:01;100177.38;;;9.46;100.00
56928;BME280;60850;52.502;13.426;2023-04-15T05:44:29;100173.56;;;9.55;100.00
56928;BME280;60850;52.502;13.426;2023-04-15T05:46:56;100168.06;;;9.61;100.00
56928;BME280;60850;52.502;13.426;2023-04-15T05:49:23;100175.09;;;9.62;100.00
56928;BME280;60850;52.502;13.426;2023-04-15T05:51:50;100166.50;;;9.54;100.00
56928;BME280;60850;52.502;13.426;2023-04-15T05:54:17;100165.25;;;9.66;100.00
56928;BME280;60850;52.502;13.426;2023-04-15T05:56:44;100163.91;;;9.79;100.00
56928;BME280;60850;52.502;13.426;2023-04-15T05:59:11;100154.06;;;9.82;100.00
56928;BME280;60850;52.502;13.426;2023-04-15T06:01:39;100169.50;;;9.98;100.00
56928;BME280;60850;52.502;13.426;2023-04-15T06:04:06;100174.69;;;10.02;100.00
56928;BME280;60850;52.502;13.426;2023-04-15T06:06:34;100166.66;;;10.04;100.00
56928;BME280;60850;52.502;13.426;2023-04-15T06:09:01;100171.09;;;10.03;100.00
56928;BME280;60850;52.502;13.426;2023-04-15T06:11:28;100161.66;;;9.93;100.00
56928;BME280;60850;52.502;13.426;2023-04-15T06:13:55;100168.69;;;9.96;100.00
56928;BME280;60850;52.502;13.426;2023-04-15T06:16:22;100167.09;;;9.90;100.00
56928;BME280;60850;52.502;13.426;2023-04-15T06:18:51;100169.38;;;10.02;100.00
56928;BME280;60850;52.502;13.426;2023-04-15T06:21:18;100164.00;;;10.04;100.00
56928;BME280;60850;52.502;13.426;2023-04-15T06:23:45;100169.88;;;10.13;100.00
56928;BME280;60850;52.502;13.426;2023-04-15T06:26:12;100177.28;;;10.32;100.00
56928;BME280;60850;52.502;13.426;2023-04-15T06:28:39;100172.00;;;10.30;100.00
56928;BME280;60850;52.502;13.426;2023-04-15T06:31:06;100175.47;;;10.32;100.00
56928;BME280;60850;52.502;13.426;2023-04-15T06:33:33;100170.41;;;10.25;100.00
56928;BME280;60850;52.502;13.426;2023-04-15T06:36:01;100175.53;;;10.31;100.00
56928;BME280;60850;52.502;13.426;2023-04-15T06:38:28;100170.38;;;10.51;100.00
56928;BME280;60850;52.502;13.426;2023-04-15T06:40:55;100170.69;;;10.67;100.00
56928;BME280;60850;52.502;13.426;2023-04-15T06:43:22;100184.38;;;10.58;100.00
56928;BME280;60850;52.502;13.426;2023-04-15T06:45:49;100179.28;;;10.75;100.00
56928;BME280;60850;52.502;13.426;2023-04-15T06:48:16;100188.44;;;10.93;100.00
56928;BME280;60850;52.502;13.426;2023-04-15T06:50:43;100189.53;;;11.11;100.00
56928;BME280;60850;52.502;13.426;2023-04-15T06:53:11;100184.59;;;11.23;100.00
56928;BME280;60850;52.502;13.426;2023-04-15T06:55:38;100196.34;;;11.41;100.00
56928;BME280;60850;52.502;13.426;2023-04-15T06:58:06;100201.97;;;11.80;100.00
56928;BME280;60850;52.502;13.426;2023-04-15T07:00:33;100197.34;;;12.28;100.00
56928;BME280;60850;52.502;13.426;2023-04-15T07:03:00;100194.44;;;12.34;100.00
56928;BME280;60850;52.502;13.426;2023-04-15T07:05:28;100204.91;;;12.38;100.00
56928;BME280;60850;52.502;13.426;2023-04-15T07:07:55;100207.94;;;12.51;100.00
56928;BME280;60850;52.502;13.426;2023-04-15T07:10:23;100212.03;;;12.18;100.00
56928;BME280;60850;52.502;13.426;2023-04-15T07:12:50;100213.22;;;12.10;100.00
56928;BME280;60850;52.502;13.426;2023-04-15T07:15:17;100213.97;;;11.92;100.00
56928;BME280;60850;52.502;13.426;2023-04-15T07:17:44;100221.88;;;11.72;100.00
56928;BME280;60850;52.502;13.426;2023-04-15T07:20:12;100219.28;;;11.70;100.00
56928;BME280;60850;52.502;13.426;2023-04-15T07:22:39;100220.19;;;11.69;100.00
56928;BME280;60850;52.502;13.426;2023-04-15T07:25:07;100225.09;;;11.80;100.00
56928;BME280;60850;52.502;13.426;2023-04-15T07:27:35;100225.19;;;11.55;100.00
56928;BME280;60850;52.502;13.426;2023-04-15T07:30:03;100233.47;;;11.49;100.00
56928;BME280;60850;52.502;13.426;2023-04-15T07:32:30;100232.84;;;11.41;100.00
56928;BME280;60850;52.502;13.426;2023-04-15T07:34:57;100233.34;;;11.28;100.00
56928;BME280;60850;52.502;13.426;2023-04-15T07:37:24;100248.81;;;11.19;100.00
56928;BME280;60850;52.502;13.426;2023-04-15T07:39:50;100234.41;;;10.99;100.00
56928;BME280;60850;52.502;13.426;2023-04-15T07:42:18;100238.53;;;10.83;100.00
56928;BME280;60850;52.502;13.426;2023-04-15T07:44:46;100246.53;;;10.83;100.00
56928;BME280;60850;52.502;13.426;2023-04-15T07:47:13;100246.75;;;10.77;100.00
56928;BME280;60850;52.502;13.426;2023-04-15T07:49:40;100243.28;;;10.75;100.00
56928;BME280;60850;52.502;13.426;2023-04-15T07:52:09;100240.56;;;10.77;100.00
56928;BME280;60850;52.502;13.426;2023-04-15T07:54:36;100246.94;;;10.72;100.00
56928;BME280;60850;52.502;13.426;2023-04-15T07:57:03;100251.88;;;10.83;100.00
56928;BME280;60850;52.502;13.426;2023-04-15T07:59:29;100254.66;;;10.80;100.00
56928;BME280;60850;52.502;13.426;2023-04-15T08:01:59;100250.69;;;10.67;100.00
56928;BME280;60850;52.502;13.426;2023-04-15T08:04:26;100247.22;;;10.65;100.00
56928;BME280;60850;52.502;13.426;2023-04-15T08:06:54;100244.41;;;10.68;100.00
56928;BME280;60850;52.502;13.426;2023-04-15T08:09:20;100248.72;;;10.72;100.00
56928;BME280;60850;52.502;13.426;2023-04-15T08:11:48;100253.94;;;10.75;100.00
56928;BME280;60850;52.502;13.426;2023-04-15T08:14:15;100249.69;;;10.69;100.00
56928;BME280;60850;52.502;13.426;2023-04-15T08:16:42;100259.28;;;10.75;100.00
56928;BME280;60850;52.502;13.426;2023-04-15T08:19:10;100257.88;;;10.65;100.00
56928;BME280;60850;52.502;13.426;2023-04-15T08:21:38;100252.81;;;10.56;100.00
56928;BME280;60850;52.502;13.426;2023-04-15T08:24:05;100259.81;;;10.60;100.00
56928;BME280;60850;52.502;13.426;2023-04-15T08:26:32;100264.00;;;10.67;100.00
56928;BME280;60850;52.502;13.426;2023-04-15T08:28:59;100264.00;;;10.67;100.00
56928;BME280;60850;52.502;13.426;2023-04-15T08:31:28;100262.63;;;10.55;100.00
56928;BME280;60850;52.502;13.426;2023-04-15T08:33:55;100268.69;;;10.60;100.00
56928;BME280;60850;52.502;13.426;2023-04-15T08:36:24;100266.22;;;10.54;100.00
56928;BME280;60850;52.502;13.426;2023-04-15T08:38:51;100264.16;;;10.62;100.00
56928;BME280;60850;52.502;13.426;2023-04-15T08:41:21;100275.88;;;10.83;100.00
56928;BME280;60850;52.502;13.426;2023-04-15T08:43:52;100279.84;;;10.96;100.00
56928;BME280;60850;52.502;13.426;2023-04-15T08:46:20;100280.44;;;11.05;100.00
56928;BME280;60850;52.502;13.426;2023-04-15T08:48:48;100276.56;;;11.13;100.00
56928;BME280;60850;52.502;13.426;2023-04-15T08:51:16;100281.59;;;11.22;100.00
56928;BME280;60850;52.502;13.426;2023-04-15T08:53:45;100282.16;;;11.07;100.00
56928;BME280;60850;52.502;13.426;2023-04-15T08:56:14;100275.19;;;11.03;100.00
56928;BME280;60850;52.502;13.426;2023-04-15T08:58:42;100286.50;;;11.10;100.00
56928;BME280;60850;52.502;13.426;2023-04-15T09:01:11;100278.88;;;11.24;100.00
56928;BME280;60850;52.502;13.426;2023-04-15T09:03:38;100275.84;;;11.33;100.00
56928;BME280;60850;52.502;13.426;2023-04-15T09:06:05;100282.41;;;11.24;100.00
56928;BME280;60850;52.502;13.426;2023-04-15T09:08:32;100283.25;;;11.02;100.00
56928;BME280;60850;52.502;13.426;2023-04-15T09:11:02;100287.75;;;10.99;100.00
56928;BME280;60850;52.502;13.426;2023-04-15T09:13:29;100284.97;;;11.03;100.00
56928;BME280;60850;52.502;13.426;2023-04-15T09:15:56;100289.44;;;11.02;100.00
56928;BME280;60850;52.502;13.426;2023-04-15T09:18:27;100290.09;;;11.09;100.00
56928;BME280;60850;52.502;13.426;2023-04-15T09:20:55;100288.81;;;11.19;100.00
56928;BME280;60850;52.502;13.426;2023-04-15T09:23:22;100293.50;;;11.12;100.00
56928;BME280;60850;52.502;13.426;2023-04-15T09:25:49;100294.28;;;11.16;100.00
56928;BME280;60850;52.502;13.426;2023-04-15T09:28:24;100298.81;;;11.14;100.00
56928;BME280;60850;52.502;13.426;2023-04-15T09:30:55;100294.94;;;11.22;100.00
56928;BME280;60850;52.502;13.426;2023-04-15T09:33:22;100300.16;;;11.25;100.00
56928;BME280;60850;52.502;13.426;2023-04-15T09:36:01;100314.34;;;11.26;100.00
56928;BME280;60850;52.502;13.426;2023-04-15T09:38:29;100317.72;;;11.06;100.00
56928;BME280;60850;52.502;13.426;2023-04-15T09:40:57;100314.47;;;10.98;100.00
56928;BME280;60850;52.502;13.426;2023-04-15T09:43:38;100318.44;;;10.86;100.00
56928;BME280;60850;52.502;13.426;2023-04-15T09:46:05;100314.69;;;10.92;100.00
56928;BME280;60850;52.502;13.426;2023-04-15T09:48:32;100324.31;;;10.96;100.00
56928;BME280;60850;52.502;13.426;2023-04-15T09:51:00;100315.56;;;10.92;100.00
56928;BME280;60850;52.502;13.426;2023-04-15T09:53:27;100318.41;;;10.88;100.00
56928;BME280;60850;52.502;13.426;2023-04-15T09:55:55;100319.91;;;10.95;100.00
56928;BME280;60850;52.502;13.426;2023-04-15T09:58:24;100318.63;;;11.07;100.00
56928;BME280;60850;52.502;13.426;2023-04-15T10:00:54;100331.78;;;11.11;100.00
56928;BME280;60850;52.502;13.426;2023-04-15T10:03:23;100331.34;;;10.98;100.00
56928;BME280;60850;52.502;13.426;2023-04-15T10:05:52;100334.72;;;10.79;100.00
56928;BME280;60850;52.502;13.426;2023-04-15T10:08:22;100340.06;;;10.77;100.00
56928;BME280;60850;52.502;13.426;2023-04-15T10:10:50;100334.75;;;10.77;100.00
56928;BME280;60850;52.502;13.426;2023-04-15T10:13:19;100342.66;;;10.80;100.00
56928;BME280;60850;52.502;13.426;2023-04-15T10:15:49;100337.41;;;10.77;100.00
56928;BME280;60850;52.502;13.426;2023-04-15T10:18:20;100343.22;;;10.90;100.00
56928;BME280;60850;52.502;13.426;2023-04-15T10:20:49;100346.66;;;10.93;100.00
56928;BME280;60850;52.502;13.426;2023-04-15T10:23:17;100358.94;;;10.97;100.00
56928;BME280;60850;52.502;13.426;2023-04-15T10:25:45;100348.28;;;10.97;100.00
56928;BME280;60850;52.502;13.426;2023-04-15T10:28:14;100352.25;;;11.11;100.00
56928;BME280;60850;52.502;13.426;2023-04-15T10:30:42;100347.25;;;11.02;100.00
56928;BME280;60850;52.502;13.426;2023-04-15T10:33:09;100347.19;;;11.03;100.00
56928;BME280;60850;52.502;13.426;2023-04-15T10:35:38;100346.22;;;11.06;100.00
56928;BME280;60850;52.502;13.426;2023-04-15T10:38:33;100349.44;;;11.15;100.00
56928;BME280;60850;52.502;13.426;2023-04-15T10:41:21;100350.09;;;11.22;100.00
56928;BME280;60850;52.502;13.426;2023-04-15T10:43:50;100351.50;;;11.32;100.00
56928;BME280;60850;52.502;13.426;2023-04-15T10:46:20;100351.41;;;11.35;100.00
56928;BME280;60850;52.502;13.426;2023-04-15T10:48:48;100356.28;;;11.47;100.00
56928;BME280;60850;52.502;13.426;2023-04-15T10:51:25;100352.69;;;11.48;100.00
56928;BME280;60850;52.502;13.426;2023-04-15T10:53:55;100349.13;;;11.49;100.00
56928;BME280;60850;52.502;13.426;2023-04-15T10:56:22;100351.53;;;11.55;100.00
56928;BME280;60850;52.502;13.426;2023-04-15T10:58:49;100354.31;;;11.27;100.00
56928;BME280;60850;52.502;13.426;2023-04-15T11:01:18;100365.13;;;11.24;100.00
56928;BME280;60850;52.502;13.426;2023-04-15T11:03:45;100358.56;;;11.33;100.00
56928;BME280;60850;52.502;13.426;2023-04-15T11:06:12;100362.19;;;11.32;100.00
56928;BME280;60850;52.502;13.426;2023-04-15T11:08:57;100363.50;;;11.45;100.00
56928;BME280;60850;52.502;13.426;2023-04-15T11:12:06;100372.63;;;11.38;100.00
56928;BME280;60850;52.502;13.426;2023-04-15T11:14:38;100374.66;;;11.32;100.00
56928;BME280;60850;52.502;13.426;2023-04-15T11:17:06;100374.72;;;11.30;100.00
56928;BME280;60850;52.502;13.426;2023-04-15T11:19:35;100376.94;;;11.17;100.00
56928;BME280;60850;52.502;13.426;2023-04-15T11:22:07;100376.22;;;11.12;100.00
56928;BME280;60850;52.502;13.426;2023-04-15T11:24:35;100384.88;;;11.19;100.00
56928;BME280;60850;52.502;13.426;2023-04-15T11:27:03;100386.13;;;11.09;100.00
56928;BME280;60850;52.502;13.426;2023-04-15T11:29:30;100379.72;;;11.14;100.00
56928;BME280;60850;52.502;13.426;2023-04-15T11:32:08;100390.94;;;11.24;100.00
56928;BME280;60850;52.502;13.426;2023-04-15T11:34:35;100394.13;;;11.09;100.00
56928;BME280;60850;52.502;13.426;2023-04-15T11:37:03;100397.63;;;11.11;100.00
56928;BME280;60850;52.502;13.426;2023-04-15T11:39:30;100396.47;;;11.18;100.00
56928;BME280;60850;52.502;13.426;2023-04-15T11:41:59;100403.06;;;11.08;100.00
56928;BME280;60850;52.502;13.426;2023-04-15T11:44:26;100398.59;;;11.08;100.00
56928;BME280;60850;52.502;13.426;2023-04-15T11:46:54;100407.16;;;11.18;100.00
56928;BME280;60850;52.502;13.426;2023-04-15T11:49:28;100413.63;;;11.11;100.00
56928;BME280;60850;52.502;13.426;2023-04-15T11:51:55;100416.09;;;11.17;100.00
56928;BME280;60850;52.502;13.426;2023-04-15T11:54:22;100412.44;;;11.19;100.00
56928;BME280;60850;52.502;13.426;2023-04-15T11:56:50;100424.34;;;11.09;100.00
56928;BME280;60850;52.502;13.426;2023-04-15T11:59:19;100419.69;;;11.16;100.00
56928;BME280;60850;52.502;13.426;2023-04-15T12:01:46;100414.34;;;11.16;100.00
56928;BME280;60850;52.502;13.426;2023-04-15T12:04:15;100418.38;;;11.27;100.00
56928;BME280;60850;52.502;13.426;2023-04-15T12:06:43;100426.63;;;11.20;100.00
56928;BME280;60850;52.502;13.426;2023-04-15T12:09:11;100429.50;;;11.15;100.00
56928;BME280;60850;52.502;13.426;2023-04-15T12:11:44;100431.09;;;11.21;100.00
56928;BME280;60850;52.502;13.426;2023-04-15T12:14:15;100431.09;;;11.21;100.00
56928;BME280;60850;52.502;13.426;2023-04-15T12:16:45;100428.81;;;11.35;100.00
56928;BME280;60850;52.502;13.426;2023-04-15T12:19:16;100427.66;;;11.42;100.00
56928;BME280;60850;52.502;13.426;2023-04-15T12:21:44;100430.28;;;11.44;100.00
56928;BME280;60850;52.502;13.426;2023-04-15T12:24:12;100434.28;;;11.55;100.00
56928;BME280;60850;52.502;13.426;2023-04-15T12:26:43;100434.72;;;11.68;100.00
56928;BME280;60850;52.502;13.426;2023-04-15T12:29:12;100438.00;;;11.76;100.00
56928;BME280;60850;52.502;13.426;2023-04-15T12:31:52;100439.53;;;11.85;100.00
56928;BME280;60850;52.502;13.426;2023-04-15T12:34:25;100441.13;;;11.89;100.00
56928;BME280;60850;52.502;13.426;2023-04-15T12:36:54;100459.53;;;11.97;100.00
56928;BME280;60850;52.502;13.426;2023-04-15T12:39:23;100444.13;;;11.80;100.00
56928;BME280;60850;52.502;13.426;2023-04-15T12:41:50;100446.91;;;11.77;100.00
56928;BME280;60850;52.502;13.426;2023-04-15T12:44:17;100452.53;;;11.94;100.00